Map

Track Data

SID SEASON NUMBER BASIN SUBBASIN NAME ISO_TIME NATURE LAT LON WMO_WIND WMO_PRES WMO_AGENCY TRACK_TYPE DIST2LAND LANDFALL IFLAG USA_AGENCY USA_ATCF_ID USA_LAT USA_LON USA_RECORD USA_STATUS USA_WIND USA_PRES USA_SSHS USA_R34_NE USA_R34_SE USA_R34_SW USA_R34_NW USA_R50_NE USA_R50_SE USA_R50_SW USA_R50_NW USA_R64_NE USA_R64_SE USA_R64_SW USA_R64_NW USA_POCI USA_ROCI USA_RMW USA_EYE TOKYO_LAT TOKYO_LON TOKYO_GRADE TOKYO_WIND TOKYO_PRES TOKYO_R50_DIR TOKYO_R50_LONG TOKYO_R50_SHORT TOKYO_R30_DIR TOKYO_R30_LONG TOKYO_R30_SHORT TOKYO_LAND CMA_LAT CMA_LON CMA_CAT CMA_WIND CMA_PRES HKO_LAT HKO_LON HKO_CAT HKO_WIND HKO_PRES NEWDELHI_LAT NEWDELHI_LON NEWDELHI_GRADE NEWDELHI_WIND NEWDELHI_PRES NEWDELHI_CI NEWDELHI_DP NEWDELHI_POCI REUNION_LAT REUNION_LON REUNION_TYPE REUNION_WIND REUNION_PRES REUNION_TNUM REUNION_CI REUNION_RMW REUNION_R34_NE REUNION_R34_SE REUNION_R34_SW REUNION_R34_NW REUNION_R50_NE REUNION_R50_SE REUNION_R50_SW REUNION_R50_NW REUNION_R64_NE REUNION_R64_SE REUNION_R64_SW REUNION_R64_NW BOM_LAT BOM_LON BOM_TYPE BOM_WIND BOM_PRES BOM_TNUM BOM_CI BOM_RMW BOM_R34_NE BOM_R34_SE BOM_R34_SW BOM_R34_NW BOM_R50_NE BOM_R50_SE BOM_R50_SW BOM_R50_NW BOM_R64_NE BOM_R64_SE BOM_R64_SW BOM_R64_NW BOM_ROCI BOM_POCI BOM_EYE BOM_POS_METHOD BOM_PRES_METHOD NADI_LAT NADI_LON NADI_CAT NADI_WIND NADI_PRES WELLINGTON_LAT WELLINGTON_LON WELLINGTON_WIND WELLINGTON_PRES DS824_LAT DS824_LON DS824_STAGE DS824_WIND DS824_PRES TD9636_LAT TD9636_LON TD9636_STAGE TD9636_WIND TD9636_PRES TD9635_LAT TD9635_LON TD9635_WIND TD9635_PRES TD9635_ROCI NEUMANN_LAT NEUMANN_LON NEUMANN_CLASS NEUMANN_WIND NEUMANN_PRES MLC_LAT MLC_LON MLC_CLASS MLC_WIND MLC_PRES USA_GUST BOM_GUST BOM_GUST_PER REUNION_GUST REUNION_GUST_PER USA_SEAHGT USA_SEARAD_NE USA_SEARAD_SE USA_SEARAD_SW USA_SEARAD_NW STORM_SPEED STORM_DIR
1935070S19115 1935 17 SI WA NOT_NAMED 1935-03-11 06:00:00 NR -18.9000 114.700 main 273 273 _____O________ -1 -18.9000 114.700 99 9.90000 0 0
1935070S19115 1935 17 SI WA NOT_NAMED 1935-03-11 09:00:00 NR -18.9069 114.700 main 273 273 _____P________ -1 -18.9069 114.700 99 0 0
1935070S19115 1935 17 SI WA NOT_NAMED 1935-03-11 12:00:00 NR -18.9131 114.694 main 273 273 _____P________ -1 -18.9131 114.694 99 0 0
1935070S19115 1935 17 SI WA NOT_NAMED 1935-03-11 15:00:00 NR -18.9181 114.676 main 273 273 _____P________ -1 -18.9181 114.676 99 1 262
1935070S19115 1935 17 SI WA NOT_NAMED 1935-03-11 18:00:00 NR -18.9211 114.640 main 279 279 _____P________ -1 -18.9211 114.640 99 1 268
1935070S19115 1935 17 SI WA NOT_NAMED 1935-03-11 21:00:00 NR -18.9215 114.581 main 279 279 _____P________ -1 -18.9215 114.581 99 1 271
1935070S19115 1935 17 SI WA NOT_NAMED 1935-03-12 00:00:00 NR -18.9185 114.492 main 285 285 _____P________ -1 -18.9185 114.492 99 2 273
1935070S19115 1935 17 SI WA NOT_NAMED 1935-03-12 03:00:00 NR -18.9116 114.367 main 291 291 _____P________ -1 -18.9116 114.367 99 3 274
1935070S19115 1935 17 SI WA NOT_NAMED 1935-03-12 06:00:00 NR -18.9000 114.200 main 303 303 _____O________ -1 -18.9000 114.200 99 9.90000 4 274
1935070S19115 1935 17 SI WA NOT_NAMED 1935-03-12 09:00:00 NR -18.8835 113.989 main 316 316 _____P________ -1 -18.8835 113.989 99 4 275
1935070S19115 1935 17 SI WA NOT_NAMED 1935-03-12 12:00:00 NR -18.8649 113.741 main 336 336 _____P________ -1 -18.8649 113.741 99 5 274
1935070S19115 1935 17 SI WA NOT_NAMED 1935-03-12 15:00:00 NR -18.8475 113.467 main 350 350 _____P________ -1 -18.8475 113.467 99 5 273
1935070S19115 1935 17 SI WA NOT_NAMED 1935-03-12 18:00:00 NR -18.8346 113.179 main 356 356 _____P________ -1 -18.8346 113.179 99 5 272
1935070S19115 1935 17 SI WA NOT_NAMED 1935-03-12 21:00:00 NR -18.8299 112.888 main 365 365 _____P________ -1 -18.8299 112.888 99 5 270
1935070S19115 1935 17 SI WA NOT_NAMED 1935-03-13 00:00:00 NR -18.8368 112.603 main 376 374 _____P________ -1 -18.8368 112.603 99 5 267
1935070S19115 1935 17 SI WA NOT_NAMED 1935-03-13 03:00:00 NR -18.8589 112.337 main 379 379 _____P________ -1 -18.8589 112.337 99 5 262
1935070S19115 1935 17 SI WA NOT_NAMED 1935-03-13 06:00:00 NR -18.9000 112.100 main 389 389 _____O________ -1 -18.9000 112.100 99 9.90000 4 255
1935070S19115 1935 17 SI WA NOT_NAMED 1935-03-13 09:00:00 NR -18.9645 111.919 main 391 391 _____P________ -1 -18.9645 111.919 99 4 245
1935070S19115 1935 17 SI WA NOT_NAMED 1935-03-13 12:00:00 NR -19.0474 111.761 main 397 387 _____P________ -1 -19.0474 111.761 99 3 237
1935070S19115 1935 17 SI WA NOT_NAMED 1935-03-13 15:00:00 NR -19.1464 111.625 main 400 390 _____P________ -1 -19.1464 111.625 99 3 228
1935070S19115 1935 17 SI WA NOT_NAMED 1935-03-13 18:00:00 NR -19.2592 111.508 main 390 388 _____P________ -1 -19.2592 111.508 99 3 221
1935070S19115 1935 17 SI WA NOT_NAMED 1935-03-13 21:00:00 NR -19.3833 111.409 main 388 380 _____P________ -1 -19.3833 111.409 99 3 214
1935070S19115 1935 17 SI WA NOT_NAMED 1935-03-14 00:00:00 NR -19.5164 111.326 main 388 380 _____P________ -1 -19.5164 111.326 99 3 208
1935070S19115 1935 17 SI WA NOT_NAMED 1935-03-14 03:00:00 NR -19.6561 111.257 main 373 373 _____P________ -1 -19.6561 111.257 99 3 202
1935070S19115 1935 17 SI WA NOT_NAMED 1935-03-14 06:00:00 NR -19.8000 111.200 main 373 366 _____O________ -1 -19.8000 111.200 99 9.90000 3 202
1935070S19115 1935 17 SI WA NOT_NAMED 1935-03-14 09:00:00 NR -19.9053 111.155 main 366 366 _____P________ -1 -19.9053 111.155 99 2 198
1935070S19115 1935 17 SI WA NOT_NAMED 1935-03-14 12:00:00 NR -20.0132 111.127 main 368 362 _____P________ -1 -20.0132 111.127 99 2 190
1935070S19115 1935 17 SI WA NOT_NAMED 1935-03-14 15:00:00 NR -20.1288 111.110 main 362 355 _____P________ -1 -20.1288 111.110 99 2 0
1935070S19115 1935 17 SI WA NOT_NAMED 1935-03-14 18:00:00 NR -20.2572 111.098 main 349 344 _____P________ -1 -20.2572 111.098 99 3 0
1935070S19115 1935 17 SI WA NOT_NAMED 1935-03-14 21:00:00 NR -20.4035 111.087 main 344 333 _____P________ -1 -20.4035 111.087 99 3 185
1935070S19115 1935 17 SI WA NOT_NAMED 1935-03-15 00:00:00 NR -20.5726 111.070 main 333 328 _____P________ -1 -20.5726 111.070 99 4 187
1935070S19115 1935 17 SI WA NOT_NAMED 1935-03-15 03:00:00 NR -20.7698 111.043 main 333 322 _____P________ -1 -20.7698 111.043 99 4 190
1935070S19115 1935 17 SI WA NOT_NAMED 1935-03-15 06:00:00 NR -21.0000 111.000 main 322 310 _____O________ -1 -21.0000 111.000 99 9.90000 5 193
1935070S19115 1935 17 SI WA NOT_NAMED 1935-03-15 09:00:00 NR -21.2968 110.910 main 314 304 _____P________ -1 -21.2968 110.910 99 7 197
1935070S19115 1935 17 SI WA NOT_NAMED 1935-03-15 12:00:00 NR -21.6300 110.803 main 309 301 _____P________ -1 -21.6300 110.803 99 7 197
1935070S19115 1935 17 SI WA NOT_NAMED 1935-03-15 15:00:00 NR -21.9890 110.685 main 305 303 _____P________ -1 -21.9890 110.685 99 8 197
1935070S19115 1935 17 SI WA NOT_NAMED 1935-03-15 18:00:00 NR -22.3631 110.561 main 308 308 _____P________ -1 -22.3631 110.561 99 8 197
1935070S19115 1935 17 SI WA NOT_NAMED 1935-03-15 21:00:00 NR -22.7418 110.435 main 328 328 _____P________ -1 -22.7418 110.435 99 8 197
1935070S19115 1935 17 SI WA NOT_NAMED 1935-03-16 00:00:00 NR -23.1145 110.312 main 338 332 _____P________ -1 -23.1145 110.312 99 8 196
1935070S19115 1935 17 SI WA NOT_NAMED 1935-03-16 03:00:00 NR -23.4708 110.199 main 338 336 _____P________ -1 -23.4708 110.199 99 7 196
1935070S19115 1935 17 SI WA NOT_NAMED 1935-03-16 06:00:00 NR -23.8000 110.100 main 341 339 _____O________ -1 -23.8000 110.100 99 9.90000 5 199
1935070S19115 1935 17 SI WA NOT_NAMED 1935-03-16 09:00:00 NR -23.9834 110.010 main 347 346 _____P________ -1 -23.9834 110.010 99 4 205
1935070S19115 1935 17 SI WA NOT_NAMED 1935-03-16 12:00:00 NR -24.1337 109.930 main 356 354 _____P________ -1 -24.1337 109.930 99 3 205
1935070S19115 1935 17 SI WA NOT_NAMED 1935-03-16 15:00:00 NR -24.2717 109.863 main 354 354 _____P________ -1 -24.2717 109.863 99 3 202
1935070S19115 1935 17 SI WA NOT_NAMED 1935-03-16 18:00:00 NR -24.4180 109.811 main 364 364 _____P________ -1 -24.4180 109.811 99 3 194
1935070S19115 1935 17 SI WA NOT_NAMED 1935-03-16 21:00:00 NR -24.5933 109.776 main 364 364 _____P________ -1 -24.5933 109.776 99 4 185
1935070S19115 1935 17 SI WA NOT_NAMED 1935-03-17 00:00:00 NR -24.8182 109.761 main 366 366 _____P________ -1 -24.8182 109.761 99 5 181
1935070S19115 1935 17 SI WA NOT_NAMED 1935-03-17 03:00:00 NR -25.1136 109.768 main 367 356 _____P________ -1 -25.1136 109.768 99 7 177
1935070S19115 1935 17 SI WA NOT_NAMED 1935-03-17 06:00:00 NR -25.5000 109.800 main 356 349 _____O________ -1 -25.5000 109.800 99 9.90000 10 178
1935070S19115 1935 17 SI WA NOT_NAMED 1935-03-17 09:00:00 NR -26.0699 109.810 main 349 348 _____P________ -1 -26.0699 109.810 99 12 178
1935070S19115 1935 17 SI WA NOT_NAMED 1935-03-17 12:00:00 NR -26.7320 109.842 main 350 344 _____P________ -1 -26.7320 109.842 99 14 177
1935070S19115 1935 17 SI WA NOT_NAMED 1935-03-17 15:00:00 NR -27.4642 109.899 main 362 362 _____P________ -1 -27.4642 109.899 99 15 175
1935070S19115 1935 17 SI WA NOT_NAMED 1935-03-17 18:00:00 NR -28.2443 109.989 main 388 388 _____P________ -1 -28.2443 109.989 99 16 173
1935070S19115 1935 17 SI WA NOT_NAMED 1935-03-17 21:00:00 NR -29.0501 110.118 main 415 408 _____P________ -1 -29.0501 110.118 99 16 171
1935070S19115 1935 17 SI WA NOT_NAMED 1935-03-18 00:00:00 NR -29.8595 110.291 main 428 428 _____P________ -1 -29.8595 110.291 99 16 168
1935070S19115 1935 17 SI WA NOT_NAMED 1935-03-18 03:00:00 NR -30.6501 110.517 main 438 419 _____P________ -1 -30.6501 110.517 99 16 164
1935070S19115 1935 17 SI WA NOT_NAMED 1935-03-18 06:00:00 NR -31.4000 110.800 main 421 400 _____O________ -1 -31.4000 110.800 99 9.90000 15 160
1935070S19115 1935 17 SI WA NOT_NAMED 1935-03-18 09:00:00 NR -32.0919 111.146 main 400 340 _____P________ -1 -32.0919 111.146 99 15 154
1935070S19115 1935 17 SI WA NOT_NAMED 1935-03-18 12:00:00 NR -32.7284 111.550 main 331 279 _____P________ -1 -32.7284 111.550 99 14 149
1935070S19115 1935 17 SI WA NOT_NAMED 1935-03-18 15:00:00 NR -33.3170 112.006 main 279 230 _____P________ -1 -33.3170 112.006 99 14 145
1935070S19115 1935 17 SI WA NOT_NAMED 1935-03-18 18:00:00 NR -33.8650 112.506 main 230 184 _____P________ -1 -33.8650 112.506 99 14 141
1935070S19115 1935 17 SI WA NOT_NAMED 1935-03-18 21:00:00 NR -34.3800 113.043 main 186 144 _____P________ -1 -34.3800 113.043 99 14 138
1935070S19115 1935 17 SI WA NOT_NAMED 1935-03-19 00:00:00 NR -34.8691 113.609 main 147 127 _____P________ -1 -34.8691 113.609 99 13 135
1935070S19115 1935 17 SI WA NOT_NAMED 1935-03-19 03:00:00 NR -35.3400 114.197 main 129 129 _____P________ -1 -35.3400 114.197 99 13 134
1935070S19115 1935 17 SI WA NOT_NAMED 1935-03-19 06:00:00 NR -35.8000 114.800 main 155 _____O________ -1 -35.8000 114.800 99 9.90000 13 133

About IBTrACS Database

This database is a web-friendly format of International Best Track Archive for Climate Stewardship (IBTrACS), a global best track data archive curated by NOAA dating back to 1842.

Updated: 2021-10-08